Time;durP1;ratioP1;P1;durP2;ratioP2;P2;SDS_P1;SDS_P2;PMS_P1;PMS_P2;Temp;Humidity;BMP_temperature;BMP_pressure;BME280_temperature;BME280_humidity;BME280_pressure;Samples;Min_cycle;Max_cycle;Signal;HPM_P1;HPM_P2
2020/12/20 00:00:34;;;;;;;10.98;5.57;;;3.10;75.90;;;;;;4943888;29;20032;-83
2020/12/20 00:03:00;;;;;;;13.88;5.15;;;3.10;76.10;;;;;;4937288;29;20043;-83
2020/12/20 00:05:26;;;;;;;11.15;4.57;;;3.10;76.00;;;;;;4921375;29;20059;-83
2020/12/20 00:07:53;;;;;;;10.82;4.63;;;3.10;76.10;;;;;;4920364;29;20416;-83
2020/12/20 00:10:20;;;;;;;11.30;5.25;;;3.10;76.40;;;;;;4920242;29;20020;-83
2020/12/20 00:12:46;;;;;;;9.35;3.85;;;3.10;76.20;;;;;;4920641;29;20031;-83
2020/12/20 00:15:11;;;;;;;10.68;4.47;;;3.20;76.20;;;;;;4934684;29;20026;-83
2020/12/20 00:17:37;;;;;;;13.02;4.93;;;3.20;76.10;;;;;;4926222;29;20039;-83
2020/12/20 00:20:06;;;;;;;8.73;3.90;;;3.20;76.30;;;;;;4932481;29;20059;-83
2020/12/20 00:22:31;;;;;;;12.27;4.80;;;3.10;76.00;;;;;;4929609;29;20038;-82
2020/12/20 00:24:57;;;;;;;13.23;5.13;;;3.20;76.00;;;;;;4935855;29;20110;-83
2020/12/20 00:27:24;;;;;;;9.05;3.75;;;3.10;75.80;;;;;;4960778;28;20043;-83
2020/12/20 00:29:50;;;;;;;10.32;4.32;;;3.10;76.00;;;;;;4947835;29;20092;-82
2020/12/20 00:32:15;;;;;;;11.32;4.20;;;3.10;76.00;;;;;;4944229;29;20375;-83
2020/12/20 00:34:42;;;;;;;11.63;4.70;;;3.00;76.10;;;;;;4934115;29;20034;-83
2020/12/20 00:37:08;;;;;;;10.88;4.30;;;3.10;76.30;;;;;;4927312;29;20476;-83
2020/12/20 00:39:34;;;;;;;12.23;5.13;;;3.00;76.00;;;;;;4935542;29;20126;-83
2020/12/20 00:42:02;;;;;;;10.80;4.55;;;3.10;76.00;;;;;;4925085;29;20024;-83
2020/12/20 00:44:28;;;;;;;10.65;4.35;;;3.00;76.10;;;;;;4922455;29;20083;-83
2020/12/20 00:46:55;;;;;;;10.57;4.10;;;3.10;76.40;;;;;;4925782;29;20039;-83
2020/12/20 00:49:22;;;;;;;8.95;3.85;;;3.10;76.30;;;;;;4937676;29;20032;-83
2020/12/20 00:51:48;;;;;;;8.52;3.55;;;3.10;75.90;;;;;;4927572;29;20031;-83
2020/12/20 00:54:14;;;;;;;11.10;4.88;;;3.00;75.70;;;;;;4924031;29;20027;-85
2020/12/20 00:56:39;;;;;;;9.05;3.42;;;2.90;75.70;;;;;;4923158;29;20028;-86
2020/12/20 00:59:05;;;;;;;13.18;5.75;;;2.90;75.80;;;;;;4931230;29;20034;-84
2020/12/20 01:01:31;;;;;;;11.45;4.25;;;2.90;75.90;;;;;;4930105;29;20097;-87
2020/12/20 01:03:57;;;;;;;12.27;4.75;;;2.90;76.10;;;;;;4924871;29;20133;-86
2020/12/20 01:06:24;;;;;;;11.05;4.57;;;2.90;76.10;;;;;;4944839;29;20039;-88
2020/12/20 01:08:51;;;;;;;13.35;4.80;;;2.90;76.10;;;;;;4935900;29;20468;-87
2020/12/20 01:11:18;;;;;;;13.45;5.40;;;2.90;76.00;;;;;;4951186;29;20396;-87
2020/12/20 01:13:45;;;;;;;9.82;4.05;;;2.90;76.10;;;;;;4940334;29;20070;-87
2020/12/20 01:16:16;;;;;;;12.52;4.82;;;2.90;76.20;;;;;;4904093;29;20032;-87
2020/12/20 01:18:41;;;;;;;10.60;4.10;;;2.90;76.50;;;;;;4927383;29;20031;-87
2020/12/20 01:21:07;;;;;;;11.57;4.82;;;2.90;75.90;;;;;;4931788;29;20386;-86
2020/12/20 01:23:33;;;;;;;13.23;5.60;;;2.90;76.10;;;;;;4965171;28;20110;-87
2020/12/20 01:25:59;;;;;;;12.05;5.00;;;2.80;75.80;;;;;;4947852;29;20030;-86
2020/12/20 01:28:25;;;;;;;10.02;4.13;;;2.80;76.00;;;;;;4922821;29;20423;-86
2020/12/20 01:30:52;;;;;;;10.40;4.30;;;2.80;76.10;;;;;;4929693;29;20108;-82
2020/12/20 01:33:17;;;;;;;13.77;5.63;;;2.80;75.80;;;;;;4942101;29;20404;-84
2020/12/20 01:35:43;;;;;;;14.43;6.13;;;2.70;75.90;;;;;;4926405;29;20027;-83
2020/12/20 01:38:09;;;;;;;12.88;4.82;;;2.80;75.90;;;;;;4955849;28;20023;-84
2020/12/20 01:40:34;;;;;;;12.27;4.90;;;2.70;76.10;;;;;;4960771;28;20210;-84
2020/12/20 01:43:00;;;;;;;13.68;5.07;;;2.70;76.10;;;;;;4957214;28;20019;-85
2020/12/20 01:45:25;;;;;;;13.23;5.80;;;2.70;76.20;;;;;;4938370;29;20039;-85
2020/12/20 01:47:51;;;;;;;15.48;6.30;;;2.80;76.20;;;;;;4946615;29;20090;-85
2020/12/20 01:50:17;;;;;;;13.50;5.22;;;2.80;76.10;;;;;;4920343;29;20091;-84
2020/12/20 01:52:43;;;;;;;12.95;5.55;;;2.80;76.10;;;;;;4957116;28;20027;-85
2020/12/20 01:55:09;;;;;;;11.98;4.55;;;2.80;76.30;;;;;;4948930;29;20070;-84
2020/12/20 01:57:35;;;;;;;12.90;5.13;;;2.80;76.30;;;;;;4964767;28;20381;-85
2020/12/20 02:00:00;;;;;;;12.73;5.50;;;2.80;76.40;;;;;;4936073;29;20037;-84
2020/12/20 02:02:26;;;;;;;14.00;5.60;;;2.90;76.50;;;;;;4940328;29;20107;-84
2020/12/20 02:04:52;;;;;;;13.00;5.00;;;2.90;76.30;;;;;;4956664;28;20035;-84
2020/12/20 02:07:17;;;;;;;15.57;5.55;;;2.90;76.30;;;;;;4951936;28;20496;-84
2020/12/20 02:09:45;;;;;;;11.85;5.03;;;2.90;76.30;;;;;;4939909;29;20576;-84
2020/12/20 02:12:11;;;;;;;16.50;5.85;;;2.90;76.10;;;;;;4925800;29;20070;-84
2020/12/20 02:14:36;;;;;;;13.43;5.03;;;2.90;76.20;;;;;;4918683;29;20028;-83
2020/12/20 02:17:03;;;;;;;11.73;5.30;;;2.90;76.40;;;;;;4944868;29;20039;-84
2020/12/20 02:19:28;;;;;;;13.80;4.97;;;2.90;76.30;;;;;;4922516;29;20024;-84
2020/12/20 02:21:54;;;;;;;12.23;4.93;;;2.90;76.00;;;;;;4931961;29;20174;-84
2020/12/20 02:24:20;;;;;;;13.52;5.60;;;2.90;75.90;;;;;;4957349;28;20038;-84
2020/12/20 02:26:45;;;;;;;13.80;5.43;;;2.80;76.00;;;;;;4950152;28;20031;-84
2020/12/20 02:29:11;;;;;;;13.88;5.72;;;2.80;75.90;;;;;;4932913;29;20046;-84
2020/12/20 02:31:37;;;;;;;12.95;5.78;;;2.80;76.00;;;;;;4925599;29;20031;-84
2020/12/20 02:34:03;;;;;;;12.82;5.47;;;2.80;76.60;;;;;;4925598;29;20039;-84
2020/12/20 02:36:29;;;;;;;10.20;4.38;;;2.80;76.20;;;;;;4941512;29;20032;-84
2020/12/20 02:38:55;;;;;;;12.02;5.63;;;2.80;76.10;;;;;;4941775;29;20122;-84
2020/12/20 02:41:21;;;;;;;16.90;5.18;;;2.80;75.90;;;;;;4929405;29;20028;-84
2020/12/20 02:43:47;;;;;;;13.02;4.53;;;2.80;76.10;;;;;;4963687;28;20038;-83
2020/12/20 02:46:13;;;;;;;12.75;4.40;;;2.80;76.30;;;;;;4964731;28;20058;-84
2020/12/20 02:48:39;;;;;;;11.25;4.95;;;2.80;76.20;;;;;;4938082;29;20067;-83
2020/12/20 02:51:04;;;;;;;13.13;5.28;;;2.80;76.30;;;;;;4953399;28;20027;-83
2020/12/20 02:53:31;;;;;;;12.13;5.95;;;2.80;76.00;;;;;;4937915;29;20023;-83
2020/12/20 02:55:56;;;;;;;11.70;4.55;;;2.70;76.00;;;;;;4922221;29;20055;-84
2020/12/20 02:58:22;;;;;;;14.15;5.78;;;2.80;76.70;;;;;;4953897;28;20032;-84
2020/12/20 03:00:48;;;;;;;14.15;5.97;;;2.70;76.10;;;;;;4954857;28;20056;-84
2020/12/20 03:03:14;;;;;;;12.25;5.63;;;2.70;76.30;;;;;;4942977;29;20058;-84
2020/12/20 03:05:39;;;;;;;13.63;5.03;;;2.70;75.90;;;;;;4921728;29;20059;-84
2020/12/20 03:08:05;;;;;;;12.68;4.78;;;2.70;76.20;;;;;;4953782;28;20169;-84
2020/12/20 03:10:31;;;;;;;13.05;5.32;;;2.80;76.60;;;;;;4944783;29;20480;-84
2020/12/20 03:12:56;;;;;;;13.52;5.00;;;2.80;76.30;;;;;;4953402;28;20476;-85
2020/12/20 03:15:22;;;;;;;12.32;5.43;;;2.80;76.20;;;;;;4925272;29;20031;-84
2020/12/20 03:17:47;;;;;;;14.48;4.72;;;2.80;76.00;;;;;;4925626;29;20031;-82
2020/12/20 03:20:13;;;;;;;12.00;4.60;;;2.70;76.00;;;;;;4946580;28;20190;-82
2020/12/20 03:22:38;;;;;;;14.80;6.25;;;2.70;76.20;;;;;;4953633;28;20035;-82
2020/12/20 03:25:04;;;;;;;13.35;5.00;;;2.70;76.20;;;;;;4942551;29;20086;-82
2020/12/20 03:27:30;;;;;;;11.68;4.55;;;2.70;76.20;;;;;;4947544;29;20035;-82
2020/12/20 03:29:56;;;;;;;14.50;5.97;;;2.70;76.10;;;;;;4953003;28;20039;-82
2020/12/20 03:32:22;;;;;;;12.93;5.30;;;2.60;76.10;;;;;;4923366;29;20392;-82
2020/12/20 03:34:47;;;;;;;12.25;4.82;;;2.70;76.10;;;;;;4954881;29;20082;-82
2020/12/20 03:37:13;;;;;;;13.90;5.47;;;2.70;76.20;;;;;;4922213;29;20028;-82
2020/12/20 03:39:39;;;;;;;10.70;4.65;;;2.80;76.10;;;;;;4921095;29;20028;-82
2020/12/20 03:42:04;;;;;;;10.65;4.18;;;2.70;76.20;;;;;;4951258;29;20028;-82
2020/12/20 03:44:30;;;;;;;12.88;5.25;;;2.70;76.30;;;;;;4960338;28;20024;-82
2020/12/20 03:46:56;;;;;;;15.25;6.05;;;2.70;76.40;;;;;;4938144;29;20031;-81
2020/12/20 03:49:21;;;;;;;13.63;5.85;;;2.70;76.00;;;;;;4928180;29;20035;-82
2020/12/20 03:51:47;;;;;;;12.80;4.70;;;2.70;76.20;;;;;;4936868;29;20067;-82
2020/12/20 03:54:13;;;;;;;14.73;6.07;;;2.70;76.30;;;;;;4927903;29;20440;-82
2020/12/20 03:56:39;;;;;;;15.48;6.10;;;2.60;75.80;;;;;;4925956;29;20035;-82
2020/12/20 03:59:04;;;;;;;13.10;5.97;;;2.60;76.20;;;;;;4923114;29;20075;-82
2020/12/20 04:01:30;;;;;;;15.50;6.30;;;2.70;76.40;;;;;;4943621;29;20027;-82
2020/12/20 04:03:56;;;;;;;13.13;5.95;;;2.70;76.30;;;;;;4959603;28;20062;-82
2020/12/20 04:06:21;;;;;;;13.82;5.28;;;2.60;76.30;;;;;;4921156;29;20039;-83
2020/12/20 04:08:47;;;;;;;14.13;5.90;;;2.70;76.50;;;;;;4920588;29;20043;-85
2020/12/20 04:11:12;;;;;;;15.48;5.90;;;2.70;76.40;;;;;;4921314;29;20024;-84
2020/12/20 04:13:38;;;;;;;13.13;5.57;;;2.70;76.40;;;;;;4943813;28;20040;-84
2020/12/20 04:16:11;;;;;;;14.85;6.35;;;2.70;76.40;;;;;;4935980;29;20408;-84
2020/12/20 04:18:37;;;;;;;12.63;5.22;;;2.80;76.60;;;;;;4945244;29;20457;-85
2020/12/20 04:21:04;;;;;;;13.82;5.88;;;2.80;76.40;;;;;;4927186;29;20055;-84
2020/12/20 04:23:30;;;;;;;16.15;5.93;;;2.70;76.20;;;;;;4920554;29;20046;-82
2020/12/20 04:25:55;;;;;;;14.25;6.45;;;2.80;76.50;;;;;;4946989;29;20027;-85
2020/12/20 04:28:21;;;;;;;14.10;6.03;;;2.80;76.50;;;;;;4936021;29;20027;-85
2020/12/20 04:30:47;;;;;;;13.48;6.38;;;2.80;76.20;;;;;;4917466;29;20047;-86
2020/12/20 04:33:13;;;;;;;16.00;6.57;;;2.80;76.20;;;;;;4936502;29;20032;-83
2020/12/20 04:35:39;;;;;;;13.02;5.68;;;2.80;76.40;;;;;;4927321;29;20020;-83
2020/12/20 04:38:04;;;;;;;14.63;5.80;;;2.80;76.60;;;;;;4950799;29;20023;-83
2020/12/20 04:40:32;;;;;;;14.43;5.80;;;2.80;76.30;;;;;;4927287;29;20043;-84
2020/12/20 04:43:07;;;;;;;15.43;5.63;;;2.80;76.40;;;;;;4944503;29;20041;-83
2020/12/20 04:45:33;;;;;;;12.45;5.50;;;2.90;76.50;;;;;;4931007;29;20031;-83
2020/12/20 04:48:00;;;;;;;14.13;5.63;;;2.90;76.60;;;;;;4937833;29;20034;-83
2020/12/20 04:50:27;;;;;;;13.20;5.15;;;2.90;77.10;;;;;;4937866;29;20476;-82
2020/12/20 04:52:56;;;;;;;14.77;5.60;;;2.90;76.30;;;;;;4919854;29;20078;-82
2020/12/20 04:55:23;;;;;;;16.27;6.18;;;3.00;76.50;;;;;;4922326;29;20031;-83
2020/12/20 04:57:50;;;;;;;15.10;6.35;;;3.00;76.60;;;;;;4924423;29;20028;-84
2020/12/20 05:00:16;;;;;;;14.98;5.68;;;2.90;76.20;;;;;;4919985;29;20102;-84
2020/12/20 05:02:42;;;;;;;14.93;5.78;;;2.90;76.30;;;;;;4932015;29;20030;-81
2020/12/20 05:05:08;;;;;;;13.98;5.93;;;2.90;76.30;;;;;;4937395;29;20023;-81
2020/12/20 05:07:34;;;;;;;14.50;5.40;;;2.90;76.50;;;;;;4952330;29;20063;-82
2020/12/20 05:10:00;;;;;;;13.27;5.63;;;3.00;76.50;;;;;;4937362;29;20024;-82
2020/12/20 05:12:31;;;;;;;16.55;6.63;;;3.00;76.40;;;;;;4959229;28;20408;-82
2020/12/20 05:14:58;;;;;;;14.82;6.28;;;3.00;76.40;;;;;;4926767;29;20032;-83
2020/12/20 05:17:25;;;;;;;13.02;5.47;;;2.90;76.20;;;;;;4926565;29;20035;-82
2020/12/20 05:19:51;;;;;;;12.30;4.82;;;3.00;76.30;;;;;;4926486;29;20035;-82
2020/12/20 05:22:21;;;;;;;15.07;6.38;;;3.00;76.70;;;;;;4930903;29;20486;-82
2020/12/20 05:24:51;;;;;;;13.20;5.18;;;3.00;76.50;;;;;;4939149;29;20028;-82
2020/12/20 05:27:20;;;;;;;18.15;6.97;;;3.00;76.40;;;;;;4947544;29;20392;-82
2020/12/20 05:29:49;;;;;;;14.73;5.90;;;2.90;76.10;;;;;;4923262;29;20043;-82
2020/12/20 05:32:29;;;;;;;15.60;6.22;;;3.00;76.50;;;;;;4928490;29;20118;-82
2020/12/20 05:35:06;;;;;;;16.08;7.00;;;3.00;76.40;;;;;;4925845;29;20065;-82
2020/12/20 05:37:33;;;;;;;13.48;4.97;;;3.00;76.60;;;;;;4942348;29;20372;-82
2020/12/20 05:40:01;;;;;;;15.82;6.38;;;3.00;76.50;;;;;;4935720;29;20031;-82
2020/12/20 05:42:26;;;;;;;13.98;5.38;;;3.00;77.00;;;;;;4947497;29;20030;-81
2020/12/20 05:45:05;;;;;;;14.68;5.72;;;3.00;76.30;;;;;;4934542;29;20036;-82
2020/12/20 05:47:31;;;;;;;13.65;5.60;;;3.00;76.40;;;;;;4925851;29;20037;-82
2020/12/20 05:49:57;;;;;;;16.40;5.75;;;3.00;76.60;;;;;;4918912;29;20394;-82
2020/12/20 05:52:22;;;;;;;14.27;6.15;;;3.00;76.60;;;;;;4928733;29;20141;-82
2020/12/20 05:54:48;;;;;;;15.10;5.05;;;3.00;76.50;;;;;;4946301;29;20030;-81
2020/12/20 05:57:19;;;;;;;15.13;6.38;;;3.00;76.90;;;;;;4934758;29;20038;-81
2020/12/20 05:59:47;;;;;;;15.85;6.78;;;3.00;76.50;;;;;;4918895;29;20023;-82
2020/12/20 06:02:13;;;;;;;16.88;6.90;;;3.00;76.40;;;;;;4925147;29;20082;-81
2020/12/20 06:04:39;;;;;;;13.07;5.35;;;3.00;77.10;;;;;;4936415;29;20034;-82
2020/12/20 06:07:07;;;;;;;14.32;5.82;;;3.00;76.80;;;;;;4929798;29;20035;-83
2020/12/20 06:09:58;;;;;;;12.55;5.22;;;3.10;76.50;;;;;;4921985;29;20074;-83
2020/12/20 06:12:31;;;;;;;13.32;5.60;;;3.00;76.20;;;;;;4928856;29;20118;-83
2020/12/20 06:14:58;;;;;;;13.82;5.03;;;3.00;76.30;;;;;;4953992;28;20020;-84
2020/12/20 06:17:26;;;;;;;15.68;5.38;;;3.00;76.40;;;;;;4926433;29;20023;-84
2020/12/20 06:19:56;;;;;;;13.18;5.53;;;3.00;76.40;;;;;;4935965;29;20098;-84
2020/12/20 06:22:29;;;;;;;14.30;5.63;;;3.00;76.30;;;;;;4932251;29;20508;-84
2020/12/20 06:25:00;;;;;;;13.70;5.80;;;3.00;76.60;;;;;;4918746;29;20027;-85
2020/12/20 06:27:30;;;;;;;14.30;6.03;;;3.10;76.80;;;;;;4918560;29;20035;-85
2020/12/20 06:30:05;;;;;;;15.73;5.95;;;3.10;76.50;;;;;;4938477;29;20512;-85
2020/12/20 06:32:41;;;;;;;13.10;5.60;;;3.10;76.60;;;;;;4920012;29;20032;-83
2020/12/20 06:35:19;;;;;;;15.70;6.20;;;3.10;76.90;;;;;;4918377;29;20497;-83
2020/12/20 06:37:46;;;;;;;14.65;6.03;;;3.20;76.80;;;;;;4912689;29;20472;-84
2020/12/20 06:40:13;;;;;;;13.75;5.68;;;3.20;76.90;;;;;;4920390;29;20036;-83
2020/12/20 06:42:44;;;;;;;15.02;5.97;;;3.20;76.80;;;;;;4923011;29;20050;-82
2020/12/20 06:45:11;;;;;;;16.45;6.63;;;3.20;76.70;;;;;;4918329;29;20055;-83
2020/12/20 06:47:50;;;;;;;11.60;4.88;;;3.20;76.60;;;;;;4941541;29;20059;-83
2020/12/20 06:50:38;;;;;;;15.05;5.93;;;3.20;76.50;;;;;;4923361;29;20366;-81
2020/12/20 06:53:08;;;;;;;12.80;4.68;;;3.20;76.60;;;;;;4924620;29;20098;-83
2020/12/20 06:55:34;;;;;;;16.67;6.38;;;3.20;76.50;;;;;;4922257;29;20019;-82
2020/12/20 06:58:02;;;;;;;13.27;5.18;;;3.20;76.50;;;;;;4938250;29;20051;-83
2020/12/20 07:00:56;;;;;;;14.77;6.45;;;3.20;76.40;;;;;;4954704;28;20046;-83
2020/12/20 07:03:24;;;;;;;14.18;5.97;;;3.20;76.40;;;;;;4952567;28;20023;-84
2020/12/20 07:05:51;;;;;;;14.45;5.13;;;3.10;76.20;;;;;;4927296;29;20031;-86
2020/12/20 07:08:29;;;;;;;17.40;7.25;;;3.20;76.60;;;;;;4934295;29;20054;-86
2020/12/20 07:10:56;;;;;;;13.82;6.57;;;3.10;76.40;;;;;;4934855;29;20027;-87
2020/12/20 07:13:39;;;;;;;17.77;7.93;;;3.20;76.40;;;;;;4949140;29;20119;-86
2020/12/20 07:16:07;;;;;;;14.63;6.03;;;3.10;76.60;;;;;;4935491;29;20032;-86
2020/12/20 07:18:43;;;;;;;15.40;6.43;;;3.20;76.50;;;;;;4924900;29;20160;-85
2020/12/20 07:21:19;;;;;;;14.40;6.20;;;3.20;76.60;;;;;;4925116;29;20027;-85
2020/12/20 07:23:49;;;;;;;12.45;4.93;;;3.20;76.80;;;;;;4935545;29;20151;-86
2020/12/20 07:26:15;;;;;;;18.33;7.25;;;3.30;76.60;;;;;;4926633;29;20032;-86
2020/12/20 07:28:41;;;;;;;15.73;6.38;;;3.30;76.70;;;;;;4937538;29;20040;-86
2020/12/20 07:31:15;;;;;;;13.57;6.10;;;3.30;77.20;;;;;;4925968;29;20067;-83
2020/12/20 07:33:41;;;;;;;16.27;6.75;;;3.30;76.60;;;;;;4939651;29;20028;-83
2020/12/20 07:36:07;;;;;;;16.10;6.72;;;3.30;76.80;;;;;;4944635;29;20019;-84
2020/12/20 07:38:32;;;;;;;10.98;5.28;;;3.30;76.70;;;;;;4921879;29;20043;-84
2020/12/20 07:40:58;;;;;;;15.80;6.72;;;3.40;76.60;;;;;;4927630;29;20027;-84
2020/12/20 07:43:24;;;;;;;14.45;5.75;;;3.40;76.50;;;;;;4922091;29;20023;-84
2020/12/20 07:46:00;;;;;;;17.20;6.88;;;3.40;76.90;;;;;;4921592;29;20024;-84
2020/12/20 07:48:26;;;;;;;12.27;5.05;;;3.40;76.80;;;;;;4933419;29;20043;-86
2020/12/20 07:50:52;;;;;;;16.58;7.28;;;3.50;76.90;;;;;;4922862;29;20034;-84
2020/12/20 07:53:18;;;;;;;16.77;6.47;;;3.60;77.10;;;;;;4933685;29;20454;-84
2020/12/20 07:55:50;;;;;;;17.95;7.28;;;3.60;76.90;;;;;;4937982;29;20067;-85
2020/12/20 07:58:18;;;;;;;17.40;6.40;;;3.60;76.80;;;;;;4938377;29;20027;-84
2020/12/20 08:00:45;;;;;;;15.27;6.60;;;3.60;76.70;;;;;;4928291;29;20111;-81
2020/12/20 08:03:12;;;;;;;16.27;7.18;;;3.70;77.00;;;;;;4922212;29;20432;-86
2020/12/20 08:05:38;;;;;;;14.70;6.40;;;3.70;76.60;;;;;;4936384;29;20040;-86
2020/12/20 08:08:04;;;;;;;14.65;6.65;;;3.50;76.20;;;;;;4952116;28;20048;-86
2020/12/20 08:10:30;;;;;;;16.15;6.60;;;3.60;76.50;;;;;;4943495;29;20035;-85
2020/12/20 08:12:55;;;;;;;19.08;7.60;;;3.60;76.50;;;;;;4921193;29;20486;-85
2020/12/20 08:15:21;;;;;;;16.63;6.35;;;3.70;76.70;;;;;;4921101;29;20024;-83
2020/12/20 08:17:47;;;;;;;17.88;8.07;;;3.60;76.80;;;;;;4928133;29;20070;-86
2020/12/20 08:20:13;;;;;;;18.48;7.22;;;3.80;77.00;;;;;;4927921;29;20024;-84
2020/12/20 08:22:39;;;;;;;19.48;7.63;;;3.80;77.20;;;;;;4938190;29;20367;-89
2020/12/20 08:25:11;;;;;;;16.20;7.03;;;3.90;77.00;;;;;;4910920;29;20031;-83
2020/12/20 08:30:28;;;;;;;15.93;6.55;;;3.90;76.90;;;;;;4927964;29;20087;-85
2020/12/20 08:32:54;;;;;;;15.48;6.03;;;4.00;77.10;;;;;;4930339;29;20035;-86
2020/12/20 08:35:26;;;;;;;17.27;6.38;;;4.00;77.10;;;;;;4931805;29;20027;-85
2020/12/20 08:37:58;;;;;;;16.27;7.10;;;4.10;77.20;;;;;;4931663;29;20023;-85
2020/12/20 08:40:27;;;;;;;18.40;6.88;;;4.20;77.30;;;;;;4931455;29;20082;-82
2020/12/20 08:42:58;;;;;;;17.15;7.00;;;4.20;77.00;;;;;;4931394;29;20073;-83
2020/12/20 08:45:25;;;;;;;19.02;8.45;;;4.30;77.10;;;;;;4926857;29;20015;-82
2020/12/20 08:48:04;;;;;;;16.13;7.25;;;4.20;76.90;;;;;;4944474;29;20036;-84
2020/12/20 08:53:25;;;;;;;;;;;4.40;76.80;;;;;;4925180;29;20068;-83
2020/12/20 08:55:51;;;;;;;16.02;5.88;;;4.40;76.90;;;;;;4924625;29;19956;-84
2020/12/20 08:58:18;;;;;;;18.40;7.90;;;4.40;76.80;;;;;;4920271;29;20047;-83
2020/12/20 09:00:44;;;;;;;14.18;5.97;;;4.40;76.50;;;;;;4920797;29;20031;-83
2020/12/20 09:03:12;;;;;;;15.80;6.30;;;4.40;77.40;;;;;;4920294;29;20384;-83
2020/12/20 09:05:38;;;;;;;14.90;6.30;;;4.40;77.20;;;;;;4919408;29;20542;-83
2020/12/20 09:08:05;;;;;;;18.08;7.50;;;4.50;77.20;;;;;;4919555;29;20048;-82
2020/12/20 09:10:36;;;;;;;14.05;6.40;;;4.60;77.30;;;;;;4945956;29;20496;-82
2020/12/20 09:13:05;;;;;;;18.60;7.53;;;4.60;76.80;;;;;;4920393;29;20114;-82
2020/12/20 09:15:32;;;;;;;15.13;7.03;;;4.70;77.30;;;;;;4926357;29;20027;-82
2020/12/20 09:18:00;;;;;;;15.43;5.78;;;4.80;77.60;;;;;;4926632;29;20050;-83
2020/12/20 09:20:28;;;;;;;15.70;7.32;;;4.80;77.20;;;;;;4919262;29;20027;-83
2020/12/20 09:23:01;;;;;;;18.15;6.90;;;4.90;77.00;;;;;;4932189;29;20028;-83
2020/12/20 09:25:44;;;;;;;17.60;7.13;;;4.90;76.60;;;;;;4923381;29;20475;-82
2020/12/20 09:28:18;;;;;;;17.33;7.18;;;4.90;77.20;;;;;;4923318;29;20040;-82
2020/12/20 09:30:48;;;;;;;;;;;5.00;77.40;;;;;;4933635;29;20055;-82
2020/12/20 09:33:18;;;;;;;18.20;6.90;;;5.00;77.00;;;;;;4919553;29;19907;-83
2020/12/20 09:35:49;;;;;;;13.75;5.53;;;5.10;77.40;;;;;;4919569;29;20028;-82
2020/12/20 09:38:15;;;;;;;16.13;8.07;;;5.10;77.20;;;;;;4916571;29;20495;-82
2020/12/20 09:40:40;;;;;;;18.55;8.07;;;5.20;77.50;;;;;;4928336;29;20035;-82
2020/12/20 09:43:06;;;;;;;14.98;6.10;;;5.30;77.20;;;;;;4928715;29;20451;-82
2020/12/20 09:45:38;;;;;;;14.90;6.45;;;5.20;77.40;;;;;;4945511;28;20364;-84
2020/12/20 09:48:03;;;;;;;21.27;9.80;;;5.50;77.60;;;;;;4921889;29;20070;-82
2020/12/20 09:50:29;;;;;;;19.20;9.40;;;5.50;77.30;;;;;;4926983;29;20831;-82
2020/12/20 09:52:54;;;;;;;16.40;7.13;;;5.60;77.70;;;;;;4924187;29;20024;-82
2020/12/20 09:55:20;;;;;;;17.00;6.78;;;5.60;77.20;;;;;;4944075;29;20551;-84
2020/12/20 09:57:46;;;;;;;14.68;6.43;;;5.60;77.20;;;;;;4944040;29;20019;-84
2020/12/20 10:00:11;;;;;;;15.45;6.53;;;5.70;77.20;;;;;;4925865;29;20030;-87
2020/12/20 10:02:37;;;;;;;15.30;6.53;;;5.70;77.10;;;;;;4951978;28;20530;-84
2020/12/20 10:05:02;;;;;;;14.73;6.55;;;5.80;77.00;;;;;;4919616;29;20027;-84
2020/12/20 10:07:28;;;;;;;15.73;6.95;;;5.80;77.10;;;;;;4927134;29;20031;-82
2020/12/20 10:09:54;;;;;;;15.93;7.05;;;5.90;77.20;;;;;;4935610;29;20472;-82
2020/12/20 10:12:19;;;;;;;15.88;7.55;;;5.80;77.10;;;;;;4939794;29;20046;-82
2020/12/20 10:14:45;;;;;;;16.17;6.50;;;5.90;77.10;;;;;;4924399;29;20152;-83
2020/12/20 10:17:10;;;;;;;16.83;6.75;;;5.80;76.80;;;;;;4921704;29;20024;-81
2020/12/20 10:19:36;;;;;;;13.52;6.55;;;5.90;77.40;;;;;;4937621;29;20472;-82
2020/12/20 10:22:02;;;;;;;14.05;6.45;;;5.90;77.10;;;;;;4945269;29;20032;-81
2020/12/20 10:24:27;;;;;;;13.88;6.05;;;6.10;77.20;;;;;;4952376;28;20487;-81
2020/12/20 10:27:17;;;;;;;15.93;7.03;;;6.10;77.20;;;;;;4921135;29;20051;-84
2020/12/20 10:32:36;;;;;;;13.02;6.28;;;6.50;78.10;;;;;;4936405;29;20032;-83
2020/12/20 10:35:02;;;;;;;14.23;6.72;;;6.70;78.20;;;;;;4932099;29;20024;-83
2020/12/20 10:37:28;;;;;;;18.73;7.00;;;6.80;78.20;;;;;;4920117;29;20103;-82
2020/12/20 10:39:53;;;;;;;25.27;8.43;;;6.90;77.20;;;;;;4940968;29;20031;-82
2020/12/20 10:42:19;;;;;;;21.50;8.82;;;6.80;76.50;;;;;;4940746;29;20039;-82
2020/12/20 10:44:45;;;;;;;31.33;9.82;;;6.70;76.60;;;;;;4934944;29;20070;-82
2020/12/20 10:47:11;;;;;;;21.80;9.88;;;6.50;76.30;;;;;;4919309;29;20028;-81
2020/12/20 10:49:37;;;;;;;25.67;10.02;;;6.60;76.30;;;;;;4935031;29;20118;-82
2020/12/20 10:52:02;;;;;;;22.52;8.77;;;6.50;76.40;;;;;;4919390;29;20020;-82
2020/12/20 10:54:31;;;;;;;36.15;10.85;;;6.50;76.90;;;;;;4924897;29;20024;-81
2020/12/20 10:57:00;;;;;;;40.08;14.25;;;6.50;76.70;;;;;;4919363;29;20043;-81
2020/12/20 10:59:27;;;;;;;17.55;9.02;;;6.60;76.90;;;;;;4919829;29;20028;-81
2020/12/20 11:01:53;;;;;;;14.73;6.95;;;6.60;77.00;;;;;;4922009;29;20020;-81
2020/12/20 11:04:19;;;;;;;15.63;7.28;;;6.50;75.70;;;;;;4926253;29;20122;-81
2020/12/20 11:06:47;;;;;;;18.15;6.35;;;6.50;76.40;;;;;;4925227;29;20114;-81
2020/12/20 11:09:13;;;;;;;14.60;6.07;;;6.50;77.30;;;;;;4943241;29;20073;-81
2020/12/20 11:11:39;;;;;;;15.27;6.32;;;6.40;76.60;;;;;;4924419;29;20119;-81
2020/12/20 11:14:04;;;;;;;15.27;6.55;;;6.40;76.40;;;;;;4919205;29;20440;-81
2020/12/20 11:16:30;;;;;;;13.35;5.97;;;6.40;76.10;;;;;;4922149;29;20027;-81
2020/12/20 11:18:59;;;;;;;15.35;6.78;;;6.40;76.40;;;;;;4922955;29;20023;-81
2020/12/20 11:21:24;;;;;;;13.68;5.70;;;6.40;76.60;;;;;;4925777;29;20019;-80
2020/12/20 11:23:50;;;;;;;15.55;7.50;;;6.30;76.50;;;;;;4924577;29;20035;-82
2020/12/20 11:26:20;;;;;;;16.70;6.28;;;6.40;76.60;;;;;;4916172;29;20057;-82
2020/12/20 11:28:49;;;;;;;14.57;5.90;;;6.40;76.70;;;;;;4922514;29;20059;-82
2020/12/20 11:31:17;;;;;;;14.52;5.90;;;6.50;76.60;;;;;;4921787;29;20028;-81
2020/12/20 11:33:44;;;;;;;14.43;6.93;;;6.30;76.70;;;;;;4921576;29;20032;-81
2020/12/20 11:36:18;;;;;;;15.90;7.15;;;6.60;77.00;;;;;;4927822;29;20024;-82
2020/12/20 11:38:44;;;;;;;13.55;6.07;;;6.60;76.90;;;;;;4959698;28;20028;-82
2020/12/20 11:41:10;;;;;;;14.05;5.95;;;6.60;76.90;;;;;;4939524;29;20028;-82
2020/12/20 11:43:36;;;;;;;16.02;6.57;;;6.60;76.70;;;;;;4922017;29;20082;-83
2020/12/20 11:46:02;;;;;;;15.18;6.05;;;6.70;77.30;;;;;;4942157;29;20023;-82
2020/12/20 11:48:27;;;;;;;12.95;5.70;;;6.80;77.20;;;;;;4932085;29;20510;-81
2020/12/20 11:50:53;;;;;;;14.43;6.72;;;6.90;77.20;;;;;;4921572;29;20019;-82
2020/12/20 11:53:19;;;;;;;15.10;5.80;;;7.00;77.30;;;;;;4923184;29;20058;-82
2020/12/20 11:55:44;;;;;;;14.48;6.05;;;7.00;77.10;;;;;;4927032;29;20027;-82
2020/12/20 11:58:13;;;;;;;16.08;6.38;;;7.20;77.60;;;;;;4923473;29;20020;-82
2020/12/20 12:00:49;;;;;;;15.45;7.30;;;7.20;77.10;;;;;;4932616;29;20383;-81
2020/12/20 12:03:18;;;;;;;17.42;6.72;;;7.20;76.20;;;;;;4922616;29;20020;-82
2020/12/20 12:05:44;;;;;;;14.70;6.82;;;7.10;76.40;;;;;;4921306;29;20024;-82
2020/12/20 12:08:11;;;;;;;13.48;5.95;;;7.10;76.40;;;;;;4921374;29;20036;-82
2020/12/20 12:10:41;;;;;;;13.32;5.55;;;7.20;77.40;;;;;;4922643;29;20016;-82
2020/12/20 12:13:08;;;;;;;15.88;5.63;;;7.40;77.60;;;;;;4924013;29;20035;-82
2020/12/20 12:15:34;;;;;;;15.85;6.60;;;7.50;77.50;;;;;;4921408;29;20031;-83
2020/12/20 12:17:59;;;;;;;14.40;6.00;;;7.60;77.70;;;;;;4945404;29;20059;-83
2020/12/20 12:20:27;;;;;;;14.40;6.70;;;7.60;76.70;;;;;;4927024;29;20036;-83
2020/12/20 12:22:53;;;;;;;15.77;6.95;;;7.50;75.70;;;;;;4938624;29;20668;-82
2020/12/20 12:25:22;;;;;;;14.02;5.53;;;7.50;76.40;;;;;;4921318;29;20038;-83
2020/12/20 12:27:49;;;;;;;16.90;6.28;;;7.50;76.80;;;;;;4927554;29;20045;-82
2020/12/20 12:30:15;;;;;;;15.75;6.63;;;7.50;75.90;;;;;;4921745;29;20047;-82
2020/12/20 12:32:41;;;;;;;15.52;6.70;;;7.40;76.00;;;;;;4946500;29;20384;-80
2020/12/20 12:35:08;;;;;;;14.43;6.45;;;7.50;77.10;;;;;;4942954;29;20023;-81
2020/12/20 12:37:34;;;;;;;13.68;6.10;;;7.50;76.50;;;;;;4928312;29;20027;-80
2020/12/20 12:40:00;;;;;;;13.18;5.65;;;7.50;76.40;;;;;;4921145;29;20011;-81
2020/12/20 12:42:26;;;;;;;12.20;5.43;;;7.50;76.70;;;;;;4936759;29;20034;-81
2020/12/20 12:44:52;;;;;;;12.35;5.38;;;7.50;76.40;;;;;;4945021;29;20038;-81
2020/12/20 12:47:17;;;;;;;13.20;6.10;;;7.60;76.90;;;;;;4930381;29;20162;-81
2020/12/20 12:49:43;;;;;;;15.05;6.82;;;7.60;77.10;;;;;;4920883;29;20610;-83
2020/12/20 12:52:46;;;;;;;15.05;5.57;;;7.80;76.80;;;;;;4927933;29;20023;-83
2020/12/20 12:55:20;;;;;;;14.25;5.60;;;8.00;77.70;;;;;;4921318;29;20436;-83
2020/12/20 12:57:46;;;;;;;12.00;5.18;;;8.00;76.50;;;;;;4926742;29;20035;-81